Blue Goose, West Virginia
Current Conditions -  °F | °C
As of 9:53 AM on Friday 19 Dec 2014 (Local Time) from KPKB Reporting Station
Overcast Overcast  
Wind Chill: 25°   Ceiling: 2400
Heat Index: 30°   Visibility: 7mi
Dew Point: 22°   Wind: 5mph
Humidity: 72%   Direction: 210°SSW
Pressure: 30.31"   Gusts: NA
Location:  38.9676°N, 81.429°W
Report Text: KPKB 191453Z 21004KT 7SM OVC024 M01/M06 A3031 RMK AO2 SLP271 T10111056 53013
Loading
Personal Weather Stations






























Interactive Weather Map New forecast layout! Learn more

10-Day Weather Forecast

Advertisements
Track Severe Weather on mobile